Accueil
METAR-TAF:

METAR-TAF

Aéroports :

Aéroport international de Sunan

Pyongyang, Corée du Nord

latitude: 39-02N, longitude: 125-47E, altitude: 36 m

METAR: absent

Heure: 06:34 (21:34 UTC)

Prévision

Le bulletin a été fait il y a 16 heures et 54 minutes, à 04:40 UTC
Prévision valable du 18 à 06 UTC au 19 à 06 UTC
Vent 6 kt de nord
Visibilité 10 km ou plus
pas de nuages en-dessous de 1500 mètres et pas de cumulonimbus.

TAF: ZKPY 180440Z 1806/1906 36003MPS CAVOK TX01/1806Z TNM09/1822Z

Observations et prévisions météorologiques de plus de 4000 aéroports (messages METAR et TAF).

Les stations disponibles sont représentées par des disques jaunes et rouges sur la carte.

Passer la souris dessus pour voir le nom de la station.

Cliquer dessus pour voir les observations et prévisions météorologiques.

Pour changer de carte: cliquez sur les boutons verts avec une croix noire pour zoomer, sur le bouton vert avec un tiret pour effectuer un zoom arrière, ou sur les flèches vertes pour les cartes adjacentes.


METAR-TAF: